sensor_id;sensor_type;location;lat;lon;timestamp;P1;durP1;ratioP1;P2;durP2;ratioP2
64915;SDS011;51427;-27.442;153.014;2023-02-28T00:00:53;3.80;;;1.80;;
64915;SDS011;51427;-27.442;153.014;2023-02-28T00:03:20;7.03;;;3.05;;
64915;SDS011;51427;-27.442;153.014;2023-02-28T00:05:48;2.80;;;1.73;;
64915;SDS011;51427;-27.442;153.014;2023-02-28T00:08:15;2.90;;;1.30;;
64915;SDS011;51427;-27.442;153.014;2023-02-28T00:10:42;3.08;;;1.40;;
64915;SDS011;51427;-27.442;153.014;2023-02-28T00:13:09;3.47;;;1.30;;
64915;SDS011;51427;-27.442;153.014;2023-02-28T00:15:37;1.63;;;1.13;;
64915;SDS011;51427;-27.442;153.014;2023-02-28T00:18:04;3.55;;;1.17;;
64915;SDS011;51427;-27.442;153.014;2023-02-28T00:20:31;3.30;;;1.50;;
64915;SDS011;51427;-27.442;153.014;2023-02-28T00:22:59;2.35;;;1.20;;
64915;SDS011;51427;-27.442;153.014;2023-02-28T00:25:26;2.20;;;1.35;;
64915;SDS011;51427;-27.442;153.014;2023-02-28T00:27:53;5.40;;;1.42;;
64915;SDS011;51427;-27.442;153.014;2023-02-28T00:30:22;2.35;;;1.40;;
64915;SDS011;51427;-27.442;153.014;2023-02-28T00:32:50;3.42;;;1.50;;
64915;SDS011;51427;-27.442;153.014;2023-02-28T00:35:17;5.03;;;1.60;;
64915;SDS011;51427;-27.442;153.014;2023-02-28T00:37:44;4.43;;;1.50;;
64915;SDS011;51427;-27.442;153.014;2023-02-28T00:40:12;2.80;;;1.33;;
64915;SDS011;51427;-27.442;153.014;2023-02-28T00:42:39;2.20;;;1.67;;
64915;SDS011;51427;-27.442;153.014;2023-02-28T00:45:06;1.85;;;1.50;;
64915;SDS011;51427;-27.442;153.014;2023-02-28T00:47:34;2.58;;;1.88;;
64915;SDS011;51427;-27.442;153.014;2023-02-28T00:50:02;3.60;;;1.67;;
64915;SDS011;51427;-27.442;153.014;2023-02-28T00:52:30;1.77;;;1.27;;
64915;SDS011;51427;-27.442;153.014;2023-02-28T00:54:57;4.07;;;1.42;;
64915;SDS011;51427;-27.442;153.014;2023-02-28T00:57:24;2.30;;;1.58;;
64915;SDS011;51427;-27.442;153.014;2023-02-28T00:59:52;2.78;;;1.23;;
64915;SDS011;51427;-27.442;153.014;2023-02-28T01:02:22;2.75;;;1.63;;
64915;SDS011;51427;-27.442;153.014;2023-02-28T01:04:49;3.20;;;1.67;;
64915;SDS011;51427;-27.442;153.014;2023-02-28T01:07:16;2.53;;;1.30;;
64915;SDS011;51427;-27.442;153.014;2023-02-28T01:09:43;3.67;;;1.42;;
64915;SDS011;51427;-27.442;153.014;2023-02-28T01:12:11;2.22;;;1.38;;
64915;SDS011;51427;-27.442;153.014;2023-02-28T01:14:38;4.70;;;2.08;;
64915;SDS011;51427;-27.442;153.014;2023-02-28T01:17:06;4.90;;;1.85;;
64915;SDS011;51427;-27.442;153.014;2023-02-28T01:19:33;3.72;;;1.80;;
64915;SDS011;51427;-27.442;153.014;2023-02-28T01:22:01;2.25;;;1.48;;
64915;SDS011;51427;-27.442;153.014;2023-02-28T01:24:30;4.80;;;1.73;;
64915;SDS011;51427;-27.442;153.014;2023-02-28T01:26:57;2.20;;;1.67;;
64915;SDS011;51427;-27.442;153.014;2023-02-28T01:29:24;4.65;;;1.70;;
64915;SDS011;51427;-27.442;153.014;2023-02-28T01:31:52;3.05;;;1.65;;
64915;SDS011;51427;-27.442;153.014;2023-02-28T01:34:19;5.18;;;1.55;;
64915;SDS011;51427;-27.442;153.014;2023-02-28T01:36:46;9.43;;;2.13;;
64915;SDS011;51427;-27.442;153.014;2023-02-28T01:39:13;2.08;;;0.90;;
64915;SDS011;51427;-27.442;153.014;2023-02-28T01:41:41;3.38;;;1.10;;
64915;SDS011;51427;-27.442;153.014;2023-02-28T01:47:12;5.00;;;1.45;;
64915;SDS011;51427;-27.442;153.014;2023-02-28T01:49:39;7.47;;;1.58;;
64915;SDS011;51427;-27.442;153.014;2023-02-28T01:52:07;2.47;;;0.75;;
64915;SDS011;51427;-27.442;153.014;2023-02-28T01:54:45;3.95;;;1.00;;
64915;SDS011;51427;-27.442;153.014;2023-02-28T01:57:17;4.47;;;0.93;;
64915;SDS011;51427;-27.442;153.014;2023-02-28T01:59:50;2.97;;;1.00;;
64915;SDS011;51427;-27.442;153.014;2023-02-28T02:02:26;3.03;;;0.85;;
64915;SDS011;51427;-27.442;153.014;2023-02-28T02:07:32;4.88;;;1.25;;
64915;SDS011;51427;-27.442;153.014;2023-02-28T02:15:21;4.45;;;1.25;;
64915;SDS011;51427;-27.442;153.014;2023-02-28T02:18:00;4.30;;;1.05;;
64915;SDS011;51427;-27.442;153.014;2023-02-28T02:34:51;3.95;;;1.30;;
64915;SDS011;51427;-27.442;153.014;2023-02-28T02:41:14;1.90;;;1.00;;
64915;SDS011;51427;-27.442;153.014;2023-02-28T02:43:52;1.92;;;0.80;;
64915;SDS011;51427;-27.442;153.014;2023-02-28T02:49:01;2.05;;;0.80;;
64915;SDS011;51427;-27.442;153.014;2023-02-28T02:51:32;2.38;;;1.10;;
64915;SDS011;51427;-27.442;153.014;2023-02-28T02:56:32;2.50;;;0.90;;
64915;SDS011;51427;-27.442;153.014;2023-02-28T02:59:03;3.85;;;1.00;;
64915;SDS011;51427;-27.442;153.014;2023-02-28T03:01:34;2.15;;;0.73;;
64915;SDS011;51427;-27.442;153.014;2023-02-28T03:04:05;2.22;;;0.98;;
64915;SDS011;51427;-27.442;153.014;2023-02-28T03:06:36;3.22;;;0.85;;
64915;SDS011;51427;-27.442;153.014;2023-02-28T03:09:04;1.85;;;0.90;;
64915;SDS011;51427;-27.442;153.014;2023-02-28T03:11:31;2.50;;;0.88;;
64915;SDS011;51427;-27.442;153.014;2023-02-28T03:14:20;2.45;;;0.80;;
64915;SDS011;51427;-27.442;153.014;2023-02-28T03:22:12;5.22;;;1.20;;
64915;SDS011;51427;-27.442;153.014;2023-02-28T03:27:25;4.10;;;0.80;;
64915;SDS011;51427;-27.442;153.014;2023-02-28T03:30:04;3.08;;;1.02;;
64915;SDS011;51427;-27.442;153.014;2023-02-28T03:32:35;3.80;;;1.10;;
64915;SDS011;51427;-27.442;153.014;2023-02-28T03:35:24;4.38;;;0.98;;
64915;SDS011;51427;-27.442;153.014;2023-02-28T03:38:00;4.65;;;1.27;;
64915;SDS011;51427;-27.442;153.014;2023-02-28T03:40:33;4.28;;;1.17;;
64915;SDS011;51427;-27.442;153.014;2023-02-28T03:43:06;2.35;;;0.68;;
64915;SDS011;51427;-27.442;153.014;2023-02-28T03:48:24;1.95;;;0.70;;
64915;SDS011;51427;-27.442;153.014;2023-02-28T03:51:00;3.22;;;0.85;;
64915;SDS011;51427;-27.442;153.014;2023-02-28T03:58:44;2.40;;;0.70;;
64915;SDS011;51427;-27.442;153.014;2023-02-28T04:01:21;2.58;;;0.80;;
64915;SDS011;51427;-27.442;153.014;2023-02-28T04:03:50;3.85;;;0.95;;
64915;SDS011;51427;-27.442;153.014;2023-02-28T04:06:19;2.72;;;0.80;;
64915;SDS011;51427;-27.442;153.014;2023-02-28T04:08:48;1.48;;;1.00;;
64915;SDS011;51427;-27.442;153.014;2023-02-28T04:13:43;2.97;;;1.15;;
64915;SDS011;51427;-27.442;153.014;2023-02-28T04:16:10;3.00;;;0.90;;
64915;SDS011;51427;-27.442;153.014;2023-02-28T04:18:38;2.95;;;0.88;;
64915;SDS011;51427;-27.442;153.014;2023-02-28T04:21:06;4.25;;;0.90;;
64915;SDS011;51427;-27.442;153.014;2023-02-28T04:23:33;5.05;;;1.10;;
64915;SDS011;51427;-27.442;153.014;2023-02-28T04:26:01;3.97;;;0.82;;
64915;SDS011;51427;-27.442;153.014;2023-02-28T04:28:29;2.05;;;0.90;;
64915;SDS011;51427;-27.442;153.014;2023-02-28T04:30:57;3.78;;;0.82;;
64915;SDS011;51427;-27.442;153.014;2023-02-28T04:33:28;3.30;;;0.80;;
64915;SDS011;51427;-27.442;153.014;2023-02-28T04:36:03;7.00;;;1.20;;
64915;SDS011;51427;-27.442;153.014;2023-02-28T04:38:35;0.65;;;0.60;;
64915;SDS011;51427;-27.442;153.014;2023-02-28T04:41:04;2.97;;;0.57;;
64915;SDS011;51427;-27.442;153.014;2023-02-28T04:43:31;3.33;;;0.88;;
64915;SDS011;51427;-27.442;153.014;2023-02-28T04:46:00;2.42;;;0.90;;
64915;SDS011;51427;-27.442;153.014;2023-02-28T04:48:30;2.28;;;0.68;;
64915;SDS011;51427;-27.442;153.014;2023-02-28T04:51:00;1.80;;;0.52;;
64915;SDS011;51427;-27.442;153.014;2023-02-28T04:53:36;2.30;;;0.63;;
64915;SDS011;51427;-27.442;153.014;2023-02-28T04:56:04;1.20;;;0.57;;
64915;SDS011;51427;-27.442;153.014;2023-02-28T04:58:33;3.25;;;0.50;;
64915;SDS011;51427;-27.442;153.014;2023-02-28T05:01:02;2.88;;;0.85;;
64915;SDS011;51427;-27.442;153.014;2023-02-28T05:03:41;1.98;;;0.70;;
64915;SDS011;51427;-27.442;153.014;2023-02-28T05:06:09;1.63;;;0.65;;
64915;SDS011;51427;-27.442;153.014;2023-02-28T05:08:38;5.45;;;0.95;;
64915;SDS011;51427;-27.442;153.014;2023-02-28T05:11:17;3.55;;;0.60;;
64915;SDS011;51427;-27.442;153.014;2023-02-28T05:13:47;2.83;;;0.90;;
64915;SDS011;51427;-27.442;153.014;2023-02-28T05:16:15;1.83;;;0.52;;
64915;SDS011;51427;-27.442;153.014;2023-02-28T05:18:43;1.48;;;0.52;;
64915;SDS011;51427;-27.442;153.014;2023-02-28T05:21:31;1.25;;;0.70;;
64915;SDS011;51427;-27.442;153.014;2023-02-28T05:24:04;1.98;;;0.50;;
64915;SDS011;51427;-27.442;153.014;2023-02-28T05:26:38;1.35;;;0.70;;
64915;SDS011;51427;-27.442;153.014;2023-02-28T05:29:07;1.75;;;0.50;;
64915;SDS011;51427;-27.442;153.014;2023-02-28T05:31:35;1.73;;;0.50;;
64915;SDS011;51427;-27.442;153.014;2023-02-28T05:34:03;1.13;;;0.50;;
64915;SDS011;51427;-27.442;153.014;2023-02-28T05:36:31;3.72;;;0.65;;
64915;SDS011;51427;-27.442;153.014;2023-02-28T05:38:59;3.60;;;0.60;;
64915;SDS011;51427;-27.442;153.014;2023-02-28T05:41:27;1.75;;;0.47;;
64915;SDS011;51427;-27.442;153.014;2023-02-28T05:43:55;1.63;;;0.65;;
64915;SDS011;51427;-27.442;153.014;2023-02-28T05:46:23;0.75;;;0.47;;
64915;SDS011;51427;-27.442;153.014;2023-02-28T05:48:51;2.55;;;0.75;;
64915;SDS011;51427;-27.442;153.014;2023-02-28T05:51:18;3.08;;;0.50;;
64915;SDS011;51427;-27.442;153.014;2023-02-28T05:53:46;1.20;;;0.50;;
64915;SDS011;51427;-27.442;153.014;2023-02-28T05:56:15;1.48;;;0.63;;
64915;SDS011;51427;-27.442;153.014;2023-02-28T05:58:42;2.35;;;0.50;;
64915;SDS011;51427;-27.442;153.014;2023-02-28T06:01:23;1.95;;;0.55;;
64915;SDS011;51427;-27.442;153.014;2023-02-28T06:03:58;0.40;;;0.32;;
64915;SDS011;51427;-27.442;153.014;2023-02-28T06:06:27;1.70;;;0.93;;
64915;SDS011;51427;-27.442;153.014;2023-02-28T06:09:00;2.53;;;0.60;;
64915;SDS011;51427;-27.442;153.014;2023-02-28T06:11:27;2.03;;;0.50;;
64915;SDS011;51427;-27.442;153.014;2023-02-28T06:13:56;5.10;;;0.55;;
64915;SDS011;51427;-27.442;153.014;2023-02-28T06:16:27;2.72;;;0.70;;
64915;SDS011;51427;-27.442;153.014;2023-02-28T06:18:58;0.80;;;0.38;;
64915;SDS011;51427;-27.442;153.014;2023-02-28T06:21:27;1.70;;;0.40;;
64915;SDS011;51427;-27.442;153.014;2023-02-28T06:23:56;0.60;;;0.38;;
64915;SDS011;51427;-27.442;153.014;2023-02-28T06:26:24;2.53;;;0.40;;
64915;SDS011;51427;-27.442;153.014;2023-02-28T06:28:53;2.05;;;0.40;;
64915;SDS011;51427;-27.442;153.014;2023-02-28T06:31:21;0.50;;;0.32;;
64915;SDS011;51427;-27.442;153.014;2023-02-28T06:33:51;4.57;;;1.10;;
64915;SDS011;51427;-27.442;153.014;2023-02-28T06:36:19;0.73;;;0.40;;
64915;SDS011;51427;-27.442;153.014;2023-02-28T06:38:51;3.78;;;0.85;;
64915;SDS011;51427;-27.442;153.014;2023-02-28T06:41:22;3.53;;;0.50;;
64915;SDS011;51427;-27.442;153.014;2023-02-28T06:43:51;2.30;;;0.40;;
64915;SDS011;51427;-27.442;153.014;2023-02-28T06:46:19;1.13;;;0.40;;
64915;SDS011;51427;-27.442;153.014;2023-02-28T06:48:47;0.65;;;0.32;;
64915;SDS011;51427;-27.442;153.014;2023-02-28T06:51:18;1.42;;;0.65;;
64915;SDS011;51427;-27.442;153.014;2023-02-28T06:53:47;1.40;;;0.50;;
64915;SDS011;51427;-27.442;153.014;2023-02-28T06:56:16;3.08;;;0.40;;
64915;SDS011;51427;-27.442;153.014;2023-02-28T06:58:49;0.60;;;0.35;;
64915;SDS011;51427;-27.442;153.014;2023-02-28T07:01:18;3.75;;;0.63;;
64915;SDS011;51427;-27.442;153.014;2023-02-28T07:03:48;1.63;;;0.45;;
64915;SDS011;51427;-27.442;153.014;2023-02-28T07:06:18;1.80;;;0.35;;
64915;SDS011;51427;-27.442;153.014;2023-02-28T07:08:48;1.55;;;0.40;;
64915;SDS011;51427;-27.442;153.014;2023-02-28T07:11:19;1.67;;;0.32;;
64915;SDS011;51427;-27.442;153.014;2023-02-28T07:13:48;1.00;;;0.45;;
64915;SDS011;51427;-27.442;153.014;2023-02-28T07:16:16;1.13;;;0.20;;
64915;SDS011;51427;-27.442;153.014;2023-02-28T07:18:44;2.10;;;0.50;;
64915;SDS011;51427;-27.442;153.014;2023-02-28T07:21:12;4.43;;;0.63;;
64915;SDS011;51427;-27.442;153.014;2023-02-28T07:23:40;1.35;;;0.30;;
64915;SDS011;51427;-27.442;153.014;2023-02-28T07:26:10;2.03;;;0.30;;
64915;SDS011;51427;-27.442;153.014;2023-02-28T07:28:41;1.65;;;0.45;;
64915;SDS011;51427;-27.442;153.014;2023-02-28T07:31:09;1.65;;;0.70;;
64915;SDS011;51427;-27.442;153.014;2023-02-28T07:33:37;1.95;;;0.40;;
64915;SDS011;51427;-27.442;153.014;2023-02-28T07:36:15;1.27;;;0.25;;
64915;SDS011;51427;-27.442;153.014;2023-02-28T07:38:45;3.95;;;0.68;;
64915;SDS011;51427;-27.442;153.014;2023-02-28T07:41:16;2.15;;;0.50;;
64915;SDS011;51427;-27.442;153.014;2023-02-28T07:43:44;1.40;;;0.50;;
64915;SDS011;51427;-27.442;153.014;2023-02-28T07:46:13;0.20;;;0.20;;
64915;SDS011;51427;-27.442;153.014;2023-02-28T07:48:42;1.52;;;0.43;;
64915;SDS011;51427;-27.442;153.014;2023-02-28T07:51:10;1.00;;;0.50;;
64915;SDS011;51427;-27.442;153.014;2023-02-28T07:53:38;1.40;;;0.20;;
64915;SDS011;51427;-27.442;153.014;2023-02-28T07:56:06;0.98;;;0.30;;
64915;SDS011;51427;-27.442;153.014;2023-02-28T07:58:37;0.52;;;0.35;;
64915;SDS011;51427;-27.442;153.014;2023-02-28T08:01:08;2.72;;;0.40;;
64915;SDS011;51427;-27.442;153.014;2023-02-28T08:03:37;2.05;;;0.30;;
64915;SDS011;51427;-27.442;153.014;2023-02-28T08:06:06;4.22;;;0.65;;
64915;SDS011;51427;-27.442;153.014;2023-02-28T08:08:41;2.35;;;0.40;;
64915;SDS011;51427;-27.442;153.014;2023-02-28T08:11:09;0.80;;;0.40;;
64915;SDS011;51427;-27.442;153.014;2023-02-28T08:13:36;1.33;;;0.43;;
64915;SDS011;51427;-27.442;153.014;2023-02-28T08:16:04;2.22;;;0.30;;
64915;SDS011;51427;-27.442;153.014;2023-02-28T08:18:32;2.92;;;0.45;;
64915;SDS011;51427;-27.442;153.014;2023-02-28T08:21:05;4.00;;;0.80;;
64915;SDS011;51427;-27.442;153.014;2023-02-28T08:23:34;3.53;;;1.98;;
64915;SDS011;51427;-27.442;153.014;2023-02-28T08:26:02;2.13;;;1.00;;
64915;SDS011;51427;-27.442;153.014;2023-02-28T08:28:30;3.20;;;0.70;;
64915;SDS011;51427;-27.442;153.014;2023-02-28T08:30:58;0.50;;;0.43;;
64915;SDS011;51427;-27.442;153.014;2023-02-28T08:33:26;4.10;;;0.63;;
64915;SDS011;51427;-27.442;153.014;2023-02-28T08:35:55;1.23;;;0.38;;
64915;SDS011;51427;-27.442;153.014;2023-02-28T08:38:23;1.83;;;0.60;;
64915;SDS011;51427;-27.442;153.014;2023-02-28T08:40:57;1.20;;;0.30;;
64915;SDS011;51427;-27.442;153.014;2023-02-28T08:43:26;2.03;;;0.60;;
64915;SDS011;51427;-27.442;153.014;2023-02-28T08:45:55;2.17;;;0.63;;
64915;SDS011;51427;-27.442;153.014;2023-02-28T08:48:23;1.55;;;0.40;;
64915;SDS011;51427;-27.442;153.014;2023-02-28T08:53:27;0.98;;;0.38;;
64915;SDS011;51427;-27.442;153.014;2023-02-28T08:56:01;2.00;;;0.40;;
64915;SDS011;51427;-27.442;153.014;2023-02-28T08:58:31;1.70;;;0.50;;
64915;SDS011;51427;-27.442;153.014;2023-02-28T09:01:00;1.60;;;0.43;;
64915;SDS011;51427;-27.442;153.014;2023-02-28T09:03:33;1.48;;;0.50;;
64915;SDS011;51427;-27.442;153.014;2023-02-28T09:06:01;0.90;;;0.43;;
64915;SDS011;51427;-27.442;153.014;2023-02-28T09:08:30;2.03;;;0.47;;
64915;SDS011;51427;-27.442;153.014;2023-02-28T09:10:58;2.40;;;0.60;;
64915;SDS011;51427;-27.442;153.014;2023-02-28T09:13:27;2.67;;;0.68;;
64915;SDS011;51427;-27.442;153.014;2023-02-28T09:15:59;1.45;;;0.30;;
64915;SDS011;51427;-27.442;153.014;2023-02-28T09:18:29;1.50;;;0.30;;
64915;SDS011;51427;-27.442;153.014;2023-02-28T09:20:57;1.15;;;0.75;;
64915;SDS011;51427;-27.442;153.014;2023-02-28T09:23:24;0.43;;;0.30;;
64915;SDS011;51427;-27.442;153.014;2023-02-28T09:25:53;0.85;;;0.43;;
64915;SDS011;51427;-27.442;153.014;2023-02-28T09:28:22;2.10;;;0.80;;
64915;SDS011;51427;-27.442;153.014;2023-02-28T09:30:50;1.77;;;0.30;;
64915;SDS011;51427;-27.442;153.014;2023-02-28T09:33:20;3.22;;;0.65;;
64915;SDS011;51427;-27.442;153.014;2023-02-28T09:35:49;2.03;;;0.50;;
64915;SDS011;51427;-27.442;153.014;2023-02-28T09:38:17;1.38;;;0.50;;
64915;SDS011;51427;-27.442;153.014;2023-02-28T09:43:13;0.73;;;0.40;;
64915;SDS011;51427;-27.442;153.014;2023-02-28T09:45:46;4.32;;;0.40;;
64915;SDS011;51427;-27.442;153.014;2023-02-28T09:48:25;1.13;;;0.55;;
64915;SDS011;51427;-27.442;153.014;2023-02-28T09:51:09;1.65;;;0.32;;
64915;SDS011;51427;-27.442;153.014;2023-02-28T09:53:53;3.05;;;0.80;;
64915;SDS011;51427;-27.442;153.014;2023-02-28T09:56:22;2.05;;;0.73;;
64915;SDS011;51427;-27.442;153.014;2023-02-28T09:58:55;1.35;;;0.45;;
64915;SDS011;51427;-27.442;153.014;2023-02-28T10:01:44;2.28;;;0.57;;
64915;SDS011;51427;-27.442;153.014;2023-02-28T10:07:37;0.98;;;0.50;;
64915;SDS011;51427;-27.442;153.014;2023-02-28T10:10:23;1.17;;;0.60;;
64915;SDS011;51427;-27.442;153.014;2023-02-28T10:12:58;3.00;;;0.45;;
64915;SDS011;51427;-27.442;153.014;2023-02-28T10:15:30;1.92;;;0.70;;
64915;SDS011;51427;-27.442;153.014;2023-02-28T10:18:00;2.50;;;1.27;;
64915;SDS011;51427;-27.442;153.014;2023-02-28T10:20:37;1.77;;;0.60;;
64915;SDS011;51427;-27.442;153.014;2023-02-28T10:26:01;0.88;;;0.40;;
64915;SDS011;51427;-27.442;153.014;2023-02-28T10:28:43;1.92;;;0.47;;
64915;SDS011;51427;-27.442;153.014;2023-02-28T10:31:13;1.73;;;0.80;;
64915;SDS011;51427;-27.442;153.014;2023-02-28T10:33:44;3.15;;;0.88;;
64915;SDS011;51427;-27.442;153.014;2023-02-28T10:36:14;1.05;;;0.63;;
64915;SDS011;51427;-27.442;153.014;2023-02-28T10:38:44;2.25;;;0.43;;
64915;SDS011;51427;-27.442;153.014;2023-02-28T10:41:14;0.65;;;0.47;;
64915;SDS011;51427;-27.442;153.014;2023-02-28T10:43:43;2.38;;;0.52;;
64915;SDS011;51427;-27.442;153.014;2023-02-28T10:46:13;3.75;;;0.60;;
64915;SDS011;51427;-27.442;153.014;2023-02-28T10:49:00;1.35;;;0.50;;
64915;SDS011;51427;-27.442;153.014;2023-02-28T10:51:39;0.88;;;0.63;;
64915;SDS011;51427;-27.442;153.014;2023-02-28T10:54:21;0.93;;;0.73;;
64915;SDS011;51427;-27.442;153.014;2023-02-28T10:57:22;1.70;;;0.80;;
64915;SDS011;51427;-27.442;153.014;2023-02-28T10:59:51;4.22;;;2.17;;
64915;SDS011;51427;-27.442;153.014;2023-02-28T11:02:36;4.93;;;1.92;;
64915;SDS011;51427;-27.442;153.014;2023-02-28T11:05:26;3.72;;;1.33;;
64915;SDS011;51427;-27.442;153.014;2023-02-28T11:08:12;1.17;;;0.47;;
64915;SDS011;51427;-27.442;153.014;2023-02-28T11:10:45;2.95;;;0.80;;
64915;SDS011;51427;-27.442;153.014;2023-02-28T11:13:16;2.78;;;1.05;;
64915;SDS011;51427;-27.442;153.014;2023-02-28T11:15:53;5.22;;;1.98;;
64915;SDS011;51427;-27.442;153.014;2023-02-28T11:18:47;4.07;;;0.93;;
64915;SDS011;51427;-27.442;153.014;2023-02-28T11:26:57;3.80;;;1.55;;
64915;SDS011;51427;-27.442;153.014;2023-02-28T11:29:29;2.63;;;0.90;;
64915;SDS011;51427;-27.442;153.014;2023-02-28T11:34:32;2.50;;;0.68;;
64915;SDS011;51427;-27.442;153.014;2023-02-28T11:36:59;0.57;;;0.47;;
64915;SDS011;51427;-27.442;153.014;2023-02-28T11:39:31;3.03;;;0.90;;
64915;SDS011;51427;-27.442;153.014;2023-02-28T11:44:58;1.25;;;0.73;;
64915;SDS011;51427;-27.442;153.014;2023-02-28T11:47:39;1.90;;;0.70;;
64915;SDS011;51427;-27.442;153.014;2023-02-28T11:55:57;4.00;;;2.22;;
64915;SDS011;51427;-27.442;153.014;2023-02-28T12:01:26;0.75;;;0.70;;
64915;SDS011;51427;-27.442;153.014;2023-02-28T12:09:32;1.38;;;0.90;;
64915;SDS011;51427;-27.442;153.014;2023-02-28T12:28:51;5.45;;;1.75;;
64915;SDS011;51427;-27.442;153.014;2023-02-28T12:34:55;5.22;;;1.67;;
64915;SDS011;51427;-27.442;153.014;2023-02-28T12:37:34;2.30;;;0.90;;
64915;SDS011;51427;-27.442;153.014;2023-02-28T12:40:09;2.15;;;0.47;;
64915;SDS011;51427;-27.442;153.014;2023-02-28T12:43:04;2.40;;;1.08;;
64915;SDS011;51427;-27.442;153.014;2023-02-28T12:48:18;2.30;;;0.70;;
64915;SDS011;51427;-27.442;153.014;2023-02-28T12:51:06;2.65;;;0.80;;
64915;SDS011;51427;-27.442;153.014;2023-02-28T12:53:49;3.65;;;0.68;;
64915;SDS011;51427;-27.442;153.014;2023-02-28T13:05:01;2.40;;;1.00;;
64915;SDS011;51427;-27.442;153.014;2023-02-28T13:10:44;2.53;;;0.70;;
64915;SDS011;51427;-27.442;153.014;2023-02-28T13:13:16;4.45;;;1.20;;
64915;SDS011;51427;-27.442;153.014;2023-02-28T13:18:39;2.65;;;1.58;;
64915;SDS011;51427;-27.442;153.014;2023-02-28T13:21:24;7.10;;;2.70;;
64915;SDS011;51427;-27.442;153.014;2023-02-28T13:23:57;3.10;;;1.83;;
64915;SDS011;51427;-27.442;153.014;2023-02-28T13:28:59;1.83;;;0.70;;
64915;SDS011;51427;-27.442;153.014;2023-02-28T13:31:33;0.95;;;0.80;;
64915;SDS011;51427;-27.442;153.014;2023-02-28T13:34:35;1.63;;;0.70;;
64915;SDS011;51427;-27.442;153.014;2023-02-28T13:50:26;4.18;;;1.55;;
64915;SDS011;51427;-27.442;153.014;2023-02-28T13:55:46;3.40;;;1.70;;
64915;SDS011;51427;-27.442;153.014;2023-02-28T14:06:27;1.67;;;0.90;;
64915;SDS011;51427;-27.442;153.014;2023-02-28T14:11:31;2.15;;;0.70;;
64915;SDS011;51427;-27.442;153.014;2023-02-28T14:14:04;1.45;;;0.50;;
64915;SDS011;51427;-27.442;153.014;2023-02-28T14:17:07;1.38;;;0.50;;
64915;SDS011;51427;-27.442;153.014;2023-02-28T14:19:32;0.77;;;0.75;;
64915;SDS011;51427;-27.442;153.014;2023-02-28T14:22:31;1.60;;;0.68;;
64915;SDS011;51427;-27.442;153.014;2023-02-28T14:31:09;3.40;;;1.92;;
64915;SDS011;51427;-27.442;153.014;2023-02-28T14:36:41;5.15;;;1.92;;
64915;SDS011;51427;-27.442;153.014;2023-02-28T14:39:14;3.20;;;1.40;;
64915;SDS011;51427;-27.442;153.014;2023-02-28T14:41:45;3.15;;;1.40;;
64915;SDS011;51427;-27.442;153.014;2023-02-28T14:46:55;3.08;;;1.13;;
64915;SDS011;51427;-27.442;153.014;2023-02-28T14:49:34;2.70;;;0.95;;
64915;SDS011;51427;-27.442;153.014;2023-02-28T14:54:47;3.20;;;0.93;;
64915;SDS011;51427;-27.442;153.014;2023-02-28T14:57:27;1.52;;;0.70;;
64915;SDS011;51427;-27.442;153.014;2023-02-28T15:00:14;1.83;;;0.73;;
64915;SDS011;51427;-27.442;153.014;2023-02-28T15:02:47;2.78;;;0.93;;
64915;SDS011;51427;-27.442;153.014;2023-02-28T15:13:21;5.30;;;1.25;;
64915;SDS011;51427;-27.442;153.014;2023-02-28T15:15:58;3.10;;;0.98;;
64915;SDS011;51427;-27.442;153.014;2023-02-28T15:21:12;2.60;;;0.90;;
64915;SDS011;51427;-27.442;153.014;2023-02-28T15:23:46;2.10;;;0.73;;
64915;SDS011;51427;-27.442;153.014;2023-02-28T15:26:24;1.95;;;0.80;;
64915;SDS011;51427;-27.442;153.014;2023-02-28T15:29:15;1.20;;;0.50;;
64915;SDS011;51427;-27.442;153.014;2023-02-28T15:32:06;1.40;;;0.70;;
64915;SDS011;51427;-27.442;153.014;2023-02-28T15:34:44;0.82;;;0.40;;
64915;SDS011;51427;-27.442;153.014;2023-02-28T15:37:29;1.27;;;0.50;;
64915;SDS011;51427;-27.442;153.014;2023-02-28T15:43:05;0.68;;;0.38;;
64915;SDS011;51427;-27.442;153.014;2023-02-28T15:45:44;1.80;;;0.60;;
64915;SDS011;51427;-27.442;153.014;2023-02-28T15:50:50;3.08;;;0.47;;
64915;SDS011;51427;-27.442;153.014;2023-02-28T15:53:38;0.45;;;0.40;;
64915;SDS011;51427;-27.442;153.014;2023-02-28T15:58:49;2.17;;;0.45;;
64915;SDS011;51427;-27.442;153.014;2023-02-28T16:01:27;1.30;;;0.40;;
64915;SDS011;51427;-27.442;153.014;2023-02-28T16:04:07;1.85;;;0.57;;
64915;SDS011;51427;-27.442;153.014;2023-02-28T16:06:46;4.57;;;0.70;;
64915;SDS011;51427;-27.442;153.014;2023-02-28T16:09:19;1.33;;;0.80;;
64915;SDS011;51427;-27.442;153.014;2023-02-28T16:11:47;0.93;;;0.60;;
64915;SDS011;51427;-27.442;153.014;2023-02-28T16:14:18;3.38;;;0.70;;
64915;SDS011;51427;-27.442;153.014;2023-02-28T16:16:49;0.30;;;0.30;;
64915;SDS011;51427;-27.442;153.014;2023-02-28T16:19:19;0.90;;;0.70;;
64915;SDS011;51427;-27.442;153.014;2023-02-28T16:21:47;1.52;;;0.88;;
64915;SDS011;51427;-27.442;153.014;2023-02-28T16:24:15;0.40;;;0.40;;
64915;SDS011;51427;-27.442;153.014;2023-02-28T16:26:42;0.43;;;0.43;;
64915;SDS011;51427;-27.442;153.014;2023-02-28T16:29:15;1.42;;;0.70;;
64915;SDS011;51427;-27.442;153.014;2023-02-28T16:32:05;2.95;;;0.77;;
64915;SDS011;51427;-27.442;153.014;2023-02-28T16:34:33;2.30;;;0.60;;
64915;SDS011;51427;-27.442;153.014;2023-02-28T16:37:00;0.63;;;0.63;;
64915;SDS011;51427;-27.442;153.014;2023-02-28T16:39:27;2.92;;;0.60;;
64915;SDS011;51427;-27.442;153.014;2023-02-28T16:41:55;1.70;;;0.70;;
64915;SDS011;51427;-27.442;153.014;2023-02-28T16:44:31;0.45;;;0.43;;
64915;SDS011;51427;-27.442;153.014;2023-02-28T16:47:01;2.53;;;0.40;;
64915;SDS011;51427;-27.442;153.014;2023-02-28T16:49:29;1.13;;;0.60;;
64915;SDS011;51427;-27.442;153.014;2023-02-28T16:51:56;2.03;;;0.70;;
64915;SDS011;51427;-27.442;153.014;2023-02-28T16:54:24;1.38;;;0.47;;
64915;SDS011;51427;-27.442;153.014;2023-02-28T16:56:52;0.82;;;0.60;;
64915;SDS011;51427;-27.442;153.014;2023-02-28T16:59:23;1.30;;;0.60;;
64915;SDS011;51427;-27.442;153.014;2023-02-28T17:01:52;0.70;;;0.70;;
64915;SDS011;51427;-27.442;153.014;2023-02-28T17:04:26;1.05;;;0.50;;
64915;SDS011;51427;-27.442;153.014;2023-02-28T17:06:53;0.77;;;0.60;;
64915;SDS011;51427;-27.442;153.014;2023-02-28T17:09:22;1.67;;;0.60;;
64915;SDS011;51427;-27.442;153.014;2023-02-28T17:11:51;1.52;;;0.50;;
64915;SDS011;51427;-27.442;153.014;2023-02-28T17:14:19;3.00;;;0.65;;
64915;SDS011;51427;-27.442;153.014;2023-02-28T17:16:46;1.17;;;0.70;;
64915;SDS011;51427;-27.442;153.014;2023-02-28T17:19:14;3.15;;;0.80;;
64915;SDS011;51427;-27.442;153.014;2023-02-28T17:21:42;0.68;;;0.52;;
64915;SDS011;51427;-27.442;153.014;2023-02-28T17:24:10;1.75;;;0.77;;
64915;SDS011;51427;-27.442;153.014;2023-02-28T17:26:39;1.42;;;0.52;;
64915;SDS011;51427;-27.442;153.014;2023-02-28T17:29:18;2.60;;;0.50;;
64915;SDS011;51427;-27.442;153.014;2023-02-28T17:31:47;0.90;;;0.40;;
64915;SDS011;51427;-27.442;153.014;2023-02-28T17:34:14;0.77;;;0.40;;
64915;SDS011;51427;-27.442;153.014;2023-02-28T17:36:49;0.93;;;0.60;;
64915;SDS011;51427;-27.442;153.014;2023-02-28T17:39:18;2.45;;;0.80;;
64915;SDS011;51427;-27.442;153.014;2023-02-28T17:41:50;1.92;;;0.50;;
64915;SDS011;51427;-27.442;153.014;2023-02-28T17:44:21;1.52;;;0.50;;